sensor_id;sensor_type;location;lat;lon;timestamp;temperature;humidity
60234;DHT22;49514;43.538;-5.708;2022-08-06T00:01:42;20.30;99.90
60234;DHT22;49514;43.538;-5.708;2022-08-06T00:04:08;20.30;99.90
60234;DHT22;49514;43.538;-5.708;2022-08-06T00:06:35;20.30;99.90
60234;DHT22;49514;43.538;-5.708;2022-08-06T00:09:02;20.30;99.90
60234;DHT22;49514;43.538;-5.708;2022-08-06T00:11:28;20.30;99.90
60234;DHT22;49514;43.538;-5.708;2022-08-06T00:13:55;20.30;99.90
60234;DHT22;49514;43.538;-5.708;2022-08-06T00:16:21;20.30;99.90
60234;DHT22;49514;43.538;-5.708;2022-08-06T00:18:47;20.30;99.90
60234;DHT22;49514;43.538;-5.708;2022-08-06T00:21:14;20.30;99.90
60234;DHT22;49514;43.538;-5.708;2022-08-06T00:23:40;20.20;99.90
60234;DHT22;49514;43.538;-5.708;2022-08-06T00:26:06;20.30;99.90
60234;DHT22;49514;43.538;-5.708;2022-08-06T00:28:33;20.30;99.90
60234;DHT22;49514;43.538;-5.708;2022-08-06T00:31:00;20.20;99.90
60234;DHT22;49514;43.538;-5.708;2022-08-06T00:33:27;20.20;99.90
60234;DHT22;49514;43.538;-5.708;2022-08-06T00:35:53;20.20;99.90
60234;DHT22;49514;43.538;-5.708;2022-08-06T00:38:20;20.20;99.90
60234;DHT22;49514;43.538;-5.708;2022-08-06T00:40:46;20.20;99.90
60234;DHT22;49514;43.538;-5.708;2022-08-06T00:43:13;20.20;99.90
60234;DHT22;49514;43.538;-5.708;2022-08-06T00:45:39;20.20;99.90
60234;DHT22;49514;43.538;-5.708;2022-08-06T00:48:05;20.20;99.90
60234;DHT22;49514;43.538;-5.708;2022-08-06T00:50:32;20.20;99.90
60234;DHT22;49514;43.538;-5.708;2022-08-06T00:52:59;20.20;99.90
60234;DHT22;49514;43.538;-5.708;2022-08-06T00:55:25;20.20;99.90
60234;DHT22;49514;43.538;-5.708;2022-08-06T00:57:52;20.20;99.90
60234;DHT22;49514;43.538;-5.708;2022-08-06T01:00:18;20.20;99.90
60234;DHT22;49514;43.538;-5.708;2022-08-06T01:02:45;20.20;99.90
60234;DHT22;49514;43.538;-5.708;2022-08-06T01:05:11;20.20;99.90
60234;DHT22;49514;43.538;-5.708;2022-08-06T01:07:37;20.20;99.90
60234;DHT22;49514;43.538;-5.708;2022-08-06T01:10:04;20.20;99.90
60234;DHT22;49514;43.538;-5.708;2022-08-06T01:12:30;20.20;99.90
60234;DHT22;49514;43.538;-5.708;2022-08-06T01:14:57;20.20;99.90
60234;DHT22;49514;43.538;-5.708;2022-08-06T01:17:25;20.20;99.90
60234;DHT22;49514;43.538;-5.708;2022-08-06T01:20:12;20.20;99.90
60234;DHT22;49514;43.538;-5.708;2022-08-06T01:30:46;20.20;99.90
60234;DHT22;49514;43.538;-5.708;2022-08-06T01:33:14;20.20;99.90
60234;DHT22;49514;43.538;-5.708;2022-08-06T01:35:44;20.20;99.90
60234;DHT22;49514;43.538;-5.708;2022-08-06T01:38:16;20.20;99.90
60234;DHT22;49514;43.538;-5.708;2022-08-06T01:40:44;20.20;99.90
60234;DHT22;49514;43.538;-5.708;2022-08-06T01:43:14;20.20;99.90
60234;DHT22;49514;43.538;-5.708;2022-08-06T01:45:42;20.20;99.90
60234;DHT22;49514;43.538;-5.708;2022-08-06T01:48:11;20.20;99.90
60234;DHT22;49514;43.538;-5.708;2022-08-06T01:50:39;20.20;99.90
60234;DHT22;49514;43.538;-5.708;2022-08-06T01:53:07;20.20;99.90
60234;DHT22;49514;43.538;-5.708;2022-08-06T01:55:39;20.20;99.90
60234;DHT22;49514;43.538;-5.708;2022-08-06T01:58:05;20.20;99.90
60234;DHT22;49514;43.538;-5.708;2022-08-06T02:00:33;20.20;99.90
60234;DHT22;49514;43.538;-5.708;2022-08-06T02:03:03;20.20;99.90
60234;DHT22;49514;43.538;-5.708;2022-08-06T02:05:32;20.20;99.90
60234;DHT22;49514;43.538;-5.708;2022-08-06T02:07:59;20.20;99.90
60234;DHT22;49514;43.538;-5.708;2022-08-06T02:10:26;20.20;99.90
60234;DHT22;49514;43.538;-5.708;2022-08-06T02:12:53;20.20;99.90
60234;DHT22;49514;43.538;-5.708;2022-08-06T02:15:24;20.20;99.90
60234;DHT22;49514;43.538;-5.708;2022-08-06T02:17:53;20.20;99.90
60234;DHT22;49514;43.538;-5.708;2022-08-06T02:20:27;20.20;99.90
60234;DHT22;49514;43.538;-5.708;2022-08-06T02:22:54;20.20;99.90
60234;DHT22;49514;43.538;-5.708;2022-08-06T02:25:22;20.20;99.90
60234;DHT22;49514;43.538;-5.708;2022-08-06T02:27:55;20.20;99.90
60234;DHT22;49514;43.538;-5.708;2022-08-06T02:30:23;20.20;99.90
60234;DHT22;49514;43.538;-5.708;2022-08-06T02:32:50;20.20;99.90
60234;DHT22;49514;43.538;-5.708;2022-08-06T02:35:17;20.10;99.90
60234;DHT22;49514;43.538;-5.708;2022-08-06T02:37:48;20.20;99.90
60234;DHT22;49514;43.538;-5.708;2022-08-06T02:40:20;20.10;99.90
60234;DHT22;49514;43.538;-5.708;2022-08-06T02:42:50;20.20;99.90
60234;DHT22;49514;43.538;-5.708;2022-08-06T02:45:21;20.20;99.90
60234;DHT22;49514;43.538;-5.708;2022-08-06T02:47:49;20.10;99.90
60234;DHT22;49514;43.538;-5.708;2022-08-06T02:50:18;20.10;99.90
60234;DHT22;49514;43.538;-5.708;2022-08-06T02:53:06;20.10;99.90
60234;DHT22;49514;43.538;-5.708;2022-08-06T02:55:32;20.10;99.90
60234;DHT22;49514;43.538;-5.708;2022-08-06T02:58:01;20.00;99.90
60234;DHT22;49514;43.538;-5.708;2022-08-06T03:03:39;20.00;99.90
60234;DHT22;49514;43.538;-5.708;2022-08-06T03:06:07;20.00;99.90
60234;DHT22;49514;43.538;-5.708;2022-08-06T03:08:35;20.00;99.90
60234;DHT22;49514;43.538;-5.708;2022-08-06T03:11:02;20.00;99.90
60234;DHT22;49514;43.538;-5.708;2022-08-06T03:13:29;20.00;99.90
60234;DHT22;49514;43.538;-5.708;2022-08-06T03:15:56;20.00;99.90
60234;DHT22;49514;43.538;-5.708;2022-08-06T03:18:24;20.00;99.90
60234;DHT22;49514;43.538;-5.708;2022-08-06T03:20:51;20.00;99.90
60234;DHT22;49514;43.538;-5.708;2022-08-06T03:23:17;20.00;99.90
60234;DHT22;49514;43.538;-5.708;2022-08-06T03:25:44;20.00;99.90
60234;DHT22;49514;43.538;-5.708;2022-08-06T03:28:11;20.00;99.90
60234;DHT22;49514;43.538;-5.708;2022-08-06T03:30:38;20.10;99.90
60234;DHT22;49514;43.538;-5.708;2022-08-06T03:33:23;20.00;99.90
60234;DHT22;49514;43.538;-5.708;2022-08-06T03:35:51;20.00;99.90
60234;DHT22;49514;43.538;-5.708;2022-08-06T03:38:18;20.00;99.90
60234;DHT22;49514;43.538;-5.708;2022-08-06T03:40:45;20.00;99.90
60234;DHT22;49514;43.538;-5.708;2022-08-06T03:43:12;20.00;99.90
60234;DHT22;49514;43.538;-5.708;2022-08-06T03:45:39;20.00;99.90
60234;DHT22;49514;43.538;-5.708;2022-08-06T03:48:09;20.00;99.90
60234;DHT22;49514;43.538;-5.708;2022-08-06T03:50:40;20.00;99.90
60234;DHT22;49514;43.538;-5.708;2022-08-06T03:53:25;20.00;99.90
60234;DHT22;49514;43.538;-5.708;2022-08-06T03:55:55;20.00;99.90
60234;DHT22;49514;43.538;-5.708;2022-08-06T03:58:23;20.00;99.90
60234;DHT22;49514;43.538;-5.708;2022-08-06T04:00:51;20.00;99.90
60234;DHT22;49514;43.538;-5.708;2022-08-06T04:03:20;20.00;99.90
60234;DHT22;49514;43.538;-5.708;2022-08-06T04:05:46;20.00;99.90
60234;DHT22;49514;43.538;-5.708;2022-08-06T04:08:13;20.00;99.90
60234;DHT22;49514;43.538;-5.708;2022-08-06T04:10:43;20.00;99.90
60234;DHT22;49514;43.538;-5.708;2022-08-06T04:13:10;20.00;99.90
60234;DHT22;49514;43.538;-5.708;2022-08-06T04:15:37;20.00;99.90
60234;DHT22;49514;43.538;-5.708;2022-08-06T04:18:07;20.00;99.90
60234;DHT22;49514;43.538;-5.708;2022-08-06T04:20:34;19.90;99.90
60234;DHT22;49514;43.538;-5.708;2022-08-06T04:23:01;19.90;99.90
60234;DHT22;49514;43.538;-5.708;2022-08-06T04:25:30;19.90;99.90
60234;DHT22;49514;43.538;-5.708;2022-08-06T04:27:57;19.90;99.90
60234;DHT22;49514;43.538;-5.708;2022-08-06T04:30:25;19.90;99.90
60234;DHT22;49514;43.538;-5.708;2022-08-06T04:32:52;19.90;99.90
60234;DHT22;49514;43.538;-5.708;2022-08-06T04:35:19;19.90;99.90
60234;DHT22;49514;43.538;-5.708;2022-08-06T04:37:47;19.90;99.90
60234;DHT22;49514;43.538;-5.708;2022-08-06T04:40:14;19.90;99.90
60234;DHT22;49514;43.538;-5.708;2022-08-06T04:42:40;20.00;99.90
60234;DHT22;49514;43.538;-5.708;2022-08-06T04:45:07;19.90;99.90
60234;DHT22;49514;43.538;-5.708;2022-08-06T04:47:34;19.90;99.90
60234;DHT22;49514;43.538;-5.708;2022-08-06T04:50:01;19.90;99.90
60234;DHT22;49514;43.538;-5.708;2022-08-06T04:52:28;19.90;99.90
60234;DHT22;49514;43.538;-5.708;2022-08-06T04:54:54;19.80;99.90
60234;DHT22;49514;43.538;-5.708;2022-08-06T04:57:21;19.80;99.90
60234;DHT22;49514;43.538;-5.708;2022-08-06T04:59:47;19.70;99.90
60234;DHT22;49514;43.538;-5.708;2022-08-06T05:02:13;19.60;99.90
60234;DHT22;49514;43.538;-5.708;2022-08-06T05:04:40;19.50;99.90
60234;DHT22;49514;43.538;-5.708;2022-08-06T05:07:15;19.40;99.90
60234;DHT22;49514;43.538;-5.708;2022-08-06T05:09:42;19.40;99.90
60234;DHT22;49514;43.538;-5.708;2022-08-06T05:12:23;19.30;99.90
60234;DHT22;49514;43.538;-5.708;2022-08-06T05:17:42;19.30;99.90
60234;DHT22;49514;43.538;-5.708;2022-08-06T05:20:15;19.20;99.90
60234;DHT22;49514;43.538;-5.708;2022-08-06T05:22:42;19.10;99.90
60234;DHT22;49514;43.538;-5.708;2022-08-06T05:25:09;19.10;99.90
60234;DHT22;49514;43.538;-5.708;2022-08-06T05:27:36;19.10;99.90
60234;DHT22;49514;43.538;-5.708;2022-08-06T05:30:03;19.00;99.90
60234;DHT22;49514;43.538;-5.708;2022-08-06T05:32:29;19.00;99.90
60234;DHT22;49514;43.538;-5.708;2022-08-06T05:34:55;18.90;99.90
60234;DHT22;49514;43.538;-5.708;2022-08-06T05:37:22;18.90;99.90
60234;DHT22;49514;43.538;-5.708;2022-08-06T05:39:48;18.80;99.90
60234;DHT22;49514;43.538;-5.708;2022-08-06T05:42:14;18.80;99.90
60234;DHT22;49514;43.538;-5.708;2022-08-06T05:44:41;18.80;99.90
60234;DHT22;49514;43.538;-5.708;2022-08-06T05:47:10;18.80;99.90
60234;DHT22;49514;43.538;-5.708;2022-08-06T05:49:40;18.80;99.90
60234;DHT22;49514;43.538;-5.708;2022-08-06T05:52:09;18.80;99.90
60234;DHT22;49514;43.538;-5.708;2022-08-06T05:54:40;18.80;99.90
60234;DHT22;49514;43.538;-5.708;2022-08-06T05:59:54;18.80;99.90
60234;DHT22;49514;43.538;-5.708;2022-08-06T06:02:22;18.80;99.90
60234;DHT22;49514;43.538;-5.708;2022-08-06T06:04:49;18.80;99.90
60234;DHT22;49514;43.538;-5.708;2022-08-06T06:07:16;18.80;99.90
60234;DHT22;49514;43.538;-5.708;2022-08-06T06:09:42;18.80;99.90
60234;DHT22;49514;43.538;-5.708;2022-08-06T06:12:09;18.80;99.90
60234;DHT22;49514;43.538;-5.708;2022-08-06T06:14:37;18.80;99.90
60234;DHT22;49514;43.538;-5.708;2022-08-06T06:17:09;18.80;99.90
60234;DHT22;49514;43.538;-5.708;2022-08-06T06:24:50;19.00;99.90
60234;DHT22;49514;43.538;-5.708;2022-08-06T06:27:27;19.10;99.90
60234;DHT22;49514;43.538;-5.708;2022-08-06T06:30:02;19.30;99.90
60234;DHT22;49514;43.538;-5.708;2022-08-06T06:32:37;19.40;99.90
60234;DHT22;49514;43.538;-5.708;2022-08-06T06:37:41;19.60;99.90
60234;DHT22;49514;43.538;-5.708;2022-08-06T06:42:38;19.70;99.90
60234;DHT22;49514;43.538;-5.708;2022-08-06T06:47:49;19.80;99.90
60234;DHT22;49514;43.538;-5.708;2022-08-06T06:50:20;19.90;99.90
60234;DHT22;49514;43.538;-5.708;2022-08-06T06:52:49;20.00;99.90
60234;DHT22;49514;43.538;-5.708;2022-08-06T06:57:48;20.30;99.90
60234;DHT22;49514;43.538;-5.708;2022-08-06T07:00:16;20.40;99.90
60234;DHT22;49514;43.538;-5.708;2022-08-06T07:02:45;20.60;99.90
60234;DHT22;49514;43.538;-5.708;2022-08-06T07:05:11;20.70;99.90
60234;DHT22;49514;43.538;-5.708;2022-08-06T07:07:39;20.80;99.90
60234;DHT22;49514;43.538;-5.708;2022-08-06T07:10:07;21.00;99.90
60234;DHT22;49514;43.538;-5.708;2022-08-06T07:12:34;21.10;99.90
60234;DHT22;49514;43.538;-5.708;2022-08-06T07:15:02;21.20;99.90
60234;DHT22;49514;43.538;-5.708;2022-08-06T07:17:30;21.40;99.90
60234;DHT22;49514;43.538;-5.708;2022-08-06T07:19:59;21.50;99.90
60234;DHT22;49514;43.538;-5.708;2022-08-06T07:22:27;21.60;99.90
60234;DHT22;49514;43.538;-5.708;2022-08-06T07:24:56;21.70;99.90
60234;DHT22;49514;43.538;-5.708;2022-08-06T07:27:24;21.80;99.90
60234;DHT22;49514;43.538;-5.708;2022-08-06T07:29:53;21.90;99.90
60234;DHT22;49514;43.538;-5.708;2022-08-06T07:32:21;22.00;99.90
60234;DHT22;49514;43.538;-5.708;2022-08-06T07:34:48;22.20;99.90
60234;DHT22;49514;43.538;-5.708;2022-08-06T07:37:15;22.30;99.90
60234;DHT22;49514;43.538;-5.708;2022-08-06T07:39:43;22.30;99.90
60234;DHT22;49514;43.538;-5.708;2022-08-06T07:42:12;22.20;99.90
60234;DHT22;49514;43.538;-5.708;2022-08-06T07:44:41;22.20;99.90
60234;DHT22;49514;43.538;-5.708;2022-08-06T07:47:08;22.00;99.90
60234;DHT22;49514;43.538;-5.708;2022-08-06T07:49:41;22.00;99.90
60234;DHT22;49514;43.538;-5.708;2022-08-06T07:52:12;22.00;99.90
60234;DHT22;49514;43.538;-5.708;2022-08-06T07:54:40;22.00;99.90
60234;DHT22;49514;43.538;-5.708;2022-08-06T07:57:07;21.90;99.90
60234;DHT22;49514;43.538;-5.708;2022-08-06T07:59:36;21.90;99.90
60234;DHT22;49514;43.538;-5.708;2022-08-06T08:02:03;21.80;99.90
60234;DHT22;49514;43.538;-5.708;2022-08-06T08:04:30;21.80;99.90
60234;DHT22;49514;43.538;-5.708;2022-08-06T08:07:16;21.90;99.90
60234;DHT22;49514;43.538;-5.708;2022-08-06T08:09:43;22.10;99.90
60234;DHT22;49514;43.538;-5.708;2022-08-06T08:12:11;22.20;99.90
60234;DHT22;49514;43.538;-5.708;2022-08-06T08:14:37;22.30;99.90
60234;DHT22;49514;43.538;-5.708;2022-08-06T08:17:06;22.40;99.90
60234;DHT22;49514;43.538;-5.708;2022-08-06T08:19:34;22.30;99.90
60234;DHT22;49514;43.538;-5.708;2022-08-06T08:22:05;22.30;99.90
60234;DHT22;49514;43.538;-5.708;2022-08-06T08:24:32;22.30;99.90
60234;DHT22;49514;43.538;-5.708;2022-08-06T08:26:59;22.30;99.90
60234;DHT22;49514;43.538;-5.708;2022-08-06T08:29:26;22.30;99.90
60234;DHT22;49514;43.538;-5.708;2022-08-06T08:31:53;22.40;99.90
60234;DHT22;49514;43.538;-5.708;2022-08-06T08:34:20;22.40;99.90
60234;DHT22;49514;43.538;-5.708;2022-08-06T08:36:46;22.40;99.90
60234;DHT22;49514;43.538;-5.708;2022-08-06T08:39:12;22.40;99.90
60234;DHT22;49514;43.538;-5.708;2022-08-06T08:41:50;22.60;99.90
60234;DHT22;49514;43.538;-5.708;2022-08-06T08:44:22;22.70;99.90
60234;DHT22;49514;43.538;-5.708;2022-08-06T08:46:49;22.90;99.90
60234;DHT22;49514;43.538;-5.708;2022-08-06T08:49:20;23.20;99.90
60234;DHT22;49514;43.538;-5.708;2022-08-06T08:51:48;23.40;99.90
60234;DHT22;49514;43.538;-5.708;2022-08-06T08:54:16;23.50;99.90
60234;DHT22;49514;43.538;-5.708;2022-08-06T08:56:44;23.60;99.90
60234;DHT22;49514;43.538;-5.708;2022-08-06T08:59:10;23.70;99.90
60234;DHT22;49514;43.538;-5.708;2022-08-06T09:01:36;23.90;99.90
60234;DHT22;49514;43.538;-5.708;2022-08-06T09:04:03;24.10;99.90
60234;DHT22;49514;43.538;-5.708;2022-08-06T09:06:30;24.30;99.90
60234;DHT22;49514;43.538;-5.708;2022-08-06T09:09:00;24.50;99.90
60234;DHT22;49514;43.538;-5.708;2022-08-06T09:11:30;24.60;99.90
60234;DHT22;49514;43.538;-5.708;2022-08-06T09:13:59;24.60;99.90
60234;DHT22;49514;43.538;-5.708;2022-08-06T09:16:26;24.50;99.90
60234;DHT22;49514;43.538;-5.708;2022-08-06T09:18:53;24.30;99.90
60234;DHT22;49514;43.538;-5.708;2022-08-06T09:21:19;24.20;99.90
60234;DHT22;49514;43.538;-5.708;2022-08-06T09:23:47;24.10;99.90
60234;DHT22;49514;43.538;-5.708;2022-08-06T09:26:13;24.10;99.90
60234;DHT22;49514;43.538;-5.708;2022-08-06T09:28:41;24.10;99.90
60234;DHT22;49514;43.538;-5.708;2022-08-06T09:31:17;24.20;99.90
60234;DHT22;49514;43.538;-5.708;2022-08-06T09:34:03;24.20;99.90
60234;DHT22;49514;43.538;-5.708;2022-08-06T09:36:40;24.20;99.90
60234;DHT22;49514;43.538;-5.708;2022-08-06T09:39:07;24.10;99.90
60234;DHT22;49514;43.538;-5.708;2022-08-06T09:41:34;23.80;99.90
60234;DHT22;49514;43.538;-5.708;2022-08-06T09:44:10;23.80;99.90
60234;DHT22;49514;43.538;-5.708;2022-08-06T09:49:04;23.70;99.90
60234;DHT22;49514;43.538;-5.708;2022-08-06T09:51:31;23.70;99.90
60234;DHT22;49514;43.538;-5.708;2022-08-06T09:54:01;23.90;99.90
60234;DHT22;49514;43.538;-5.708;2022-08-06T09:56:29;23.80;99.90
60234;DHT22;49514;43.538;-5.708;2022-08-06T09:58:59;23.90;99.90
60234;DHT22;49514;43.538;-5.708;2022-08-06T10:01:26;24.00;99.90
60234;DHT22;49514;43.538;-5.708;2022-08-06T10:03:53;23.90;99.90
60234;DHT22;49514;43.538;-5.708;2022-08-06T10:06:20;24.00;99.90
60234;DHT22;49514;43.538;-5.708;2022-08-06T10:08:48;24.10;99.90
60234;DHT22;49514;43.538;-5.708;2022-08-06T10:11:15;24.20;99.90
60234;DHT22;49514;43.538;-5.708;2022-08-06T10:13:48;24.30;99.90
60234;DHT22;49514;43.538;-5.708;2022-08-06T10:16:15;24.50;99.90
60234;DHT22;49514;43.538;-5.708;2022-08-06T10:18:43;24.50;99.90
60234;DHT22;49514;43.538;-5.708;2022-08-06T10:21:11;24.50;99.90
60234;DHT22;49514;43.538;-5.708;2022-08-06T10:23:40;24.40;99.90
60234;DHT22;49514;43.538;-5.708;2022-08-06T10:26:08;24.50;99.90
60234;DHT22;49514;43.538;-5.708;2022-08-06T10:28:35;24.50;99.90
60234;DHT22;49514;43.538;-5.708;2022-08-06T10:31:03;24.50;99.90
60234;DHT22;49514;43.538;-5.708;2022-08-06T10:33:31;24.50;99.90
60234;DHT22;49514;43.538;-5.708;2022-08-06T10:36:04;24.40;99.90
60234;DHT22;49514;43.538;-5.708;2022-08-06T10:38:34;24.50;99.90
60234;DHT22;49514;43.538;-5.708;2022-08-06T10:41:09;24.60;99.90
60234;DHT22;49514;43.538;-5.708;2022-08-06T10:43:37;24.70;99.90
60234;DHT22;49514;43.538;-5.708;2022-08-06T10:46:04;24.90;99.90
60234;DHT22;49514;43.538;-5.708;2022-08-06T10:48:31;25.00;99.90
60234;DHT22;49514;43.538;-5.708;2022-08-06T10:50:59;25.00;99.90
60234;DHT22;49514;43.538;-5.708;2022-08-06T10:53:26;25.20;99.90
60234;DHT22;49514;43.538;-5.708;2022-08-06T10:55:52;25.20;99.90
60234;DHT22;49514;43.538;-5.708;2022-08-06T10:58:19;25.30;99.90
60234;DHT22;49514;43.538;-5.708;2022-08-06T11:00:46;25.50;99.90
60234;DHT22;49514;43.538;-5.708;2022-08-06T11:03:14;25.70;99.90
60234;DHT22;49514;43.538;-5.708;2022-08-06T11:05:41;25.90;99.90
60234;DHT22;49514;43.538;-5.708;2022-08-06T11:13:17;26.60;99.90
60234;DHT22;49514;43.538;-5.708;2022-08-06T11:15:45;26.60;99.90
60234;DHT22;49514;43.538;-5.708;2022-08-06T11:18:12;26.80;99.90
60234;DHT22;49514;43.538;-5.708;2022-08-06T11:25:40;26.90;99.90
60234;DHT22;49514;43.538;-5.708;2022-08-06T11:28:08;27.00;99.90
60234;DHT22;49514;43.538;-5.708;2022-08-06T11:30:40;26.90;99.90
60234;DHT22;49514;43.538;-5.708;2022-08-06T11:33:07;26.90;99.90
60234;DHT22;49514;43.538;-5.708;2022-08-06T11:40:27;26.50;99.90
60234;DHT22;49514;43.538;-5.708;2022-08-06T11:42:53;26.50;99.90
60234;DHT22;49514;43.538;-5.708;2022-08-06T11:45:20;26.20;99.90
60234;DHT22;49514;43.538;-5.708;2022-08-06T11:50:32;26.00;99.90
60234;DHT22;49514;43.538;-5.708;2022-08-06T11:52:58;26.20;99.90
60234;DHT22;49514;43.538;-5.708;2022-08-06T11:55:25;26.10;99.90
60234;DHT22;49514;43.538;-5.708;2022-08-06T12:00:57;26.10;99.90
60234;DHT22;49514;43.538;-5.708;2022-08-06T12:03:36;26.20;99.90
60234;DHT22;49514;43.538;-5.708;2022-08-06T12:06:17;26.20;99.90
60234;DHT22;49514;43.538;-5.708;2022-08-06T12:09:00;26.30;99.90
60234;DHT22;49514;43.538;-5.708;2022-08-06T12:11:31;26.20;99.90
60234;DHT22;49514;43.538;-5.708;2022-08-06T12:13:59;26.30;99.90
60234;DHT22;49514;43.538;-5.708;2022-08-06T12:16:33;26.20;99.90
60234;DHT22;49514;43.538;-5.708;2022-08-06T12:19:04;26.20;99.90
60234;DHT22;49514;43.538;-5.708;2022-08-06T12:21:31;26.20;99.90
60234;DHT22;49514;43.538;-5.708;2022-08-06T12:23:57;26.00;99.90
60234;DHT22;49514;43.538;-5.708;2022-08-06T12:26:24;26.10;99.90
60234;DHT22;49514;43.538;-5.708;2022-08-06T12:28:59;26.00;99.90
60234;DHT22;49514;43.538;-5.708;2022-08-06T12:31:29;26.20;99.90
60234;DHT22;49514;43.538;-5.708;2022-08-06T12:33:56;26.20;99.90
60234;DHT22;49514;43.538;-5.708;2022-08-06T12:36:32;26.30;99.90
60234;DHT22;49514;43.538;-5.708;2022-08-06T12:38:59;26.30;99.90
60234;DHT22;49514;43.538;-5.708;2022-08-06T12:41:37;26.40;99.90
60234;DHT22;49514;43.538;-5.708;2022-08-06T12:44:04;26.60;99.90
60234;DHT22;49514;43.538;-5.708;2022-08-06T12:46:30;26.80;99.90
60234;DHT22;49514;43.538;-5.708;2022-08-06T12:48:58;27.10;99.90
60234;DHT22;49514;43.538;-5.708;2022-08-06T12:51:25;27.30;99.90
60234;DHT22;49514;43.538;-5.708;2022-08-06T12:53:53;27.60;99.90
60234;DHT22;49514;43.538;-5.708;2022-08-06T12:56:21;27.80;99.90
60234;DHT22;49514;43.538;-5.708;2022-08-06T12:58:48;28.00;99.90
60234;DHT22;49514;43.538;-5.708;2022-08-06T13:01:17;28.60;99.90
60234;DHT22;49514;43.538;-5.708;2022-08-06T13:03:45;29.60;99.70
60234;DHT22;49514;43.538;-5.708;2022-08-06T13:06:13;30.60;97.80
60234;DHT22;49514;43.538;-5.708;2022-08-06T13:08:40;32.40;94.30
60234;DHT22;49514;43.538;-5.708;2022-08-06T13:11:07;33.60;91.80
60234;DHT22;49514;43.538;-5.708;2022-08-06T13:16:09;36.40;84.00
60234;DHT22;49514;43.538;-5.708;2022-08-06T13:18:37;37.70;82.00
60234;DHT22;49514;43.538;-5.708;2022-08-06T13:21:04;38.50;76.10
60234;DHT22;49514;43.538;-5.708;2022-08-06T13:23:44;38.70;71.40
60234;DHT22;49514;43.538;-5.708;2022-08-06T13:26:12;39.90;71.60
60234;DHT22;49514;43.538;-5.708;2022-08-06T13:28:39;41.50;67.70
60234;DHT22;49514;43.538;-5.708;2022-08-06T13:31:18;42.40;62.60
60234;DHT22;49514;43.538;-5.708;2022-08-06T13:34:01;43.00;68.70
60234;DHT22;49514;43.538;-5.708;2022-08-06T13:36:29;44.10;63.30
60234;DHT22;49514;43.538;-5.708;2022-08-06T13:38:56;46.00;63.50
60234;DHT22;49514;43.538;-5.708;2022-08-06T13:41:27;46.90;60.40
60234;DHT22;49514;43.538;-5.708;2022-08-06T13:43:54;47.10;58.60
60234;DHT22;49514;43.538;-5.708;2022-08-06T13:46:26;47.30;55.70
60234;DHT22;49514;43.538;-5.708;2022-08-06T13:48:55;47.70;56.30
60234;DHT22;49514;43.538;-5.708;2022-08-06T13:51:23;48.20;53.70
60234;DHT22;49514;43.538;-5.708;2022-08-06T13:53:50;48.40;55.60
60234;DHT22;49514;43.538;-5.708;2022-08-06T13:56:17;48.40;52.40
60234;DHT22;49514;43.538;-5.708;2022-08-06T13:58:44;48.40;52.10
60234;DHT22;49514;43.538;-5.708;2022-08-06T14:01:13;48.90;53.30
60234;DHT22;49514;43.538;-5.708;2022-08-06T14:03:40;49.10;52.60
60234;DHT22;49514;43.538;-5.708;2022-08-06T14:06:07;49.50;51.70
60234;DHT22;49514;43.538;-5.708;2022-08-06T14:08:34;49.70;51.80
60234;DHT22;49514;43.538;-5.708;2022-08-06T14:11:01;49.90;50.00
60234;DHT22;49514;43.538;-5.708;2022-08-06T14:13:28;49.90;49.20
60234;DHT22;49514;43.538;-5.708;2022-08-06T14:15:55;50.10;48.80
60234;DHT22;49514;43.538;-5.708;2022-08-06T14:18:22;50.20;48.50
60234;DHT22;49514;43.538;-5.708;2022-08-06T14:20:50;49.60;50.30
60234;DHT22;49514;43.538;-5.708;2022-08-06T14:23:18;50.40;48.30
60234;DHT22;49514;43.538;-5.708;2022-08-06T14:25:47;50.90;49.70
60234;DHT22;49514;43.538;-5.708;2022-08-06T14:28:13;50.90;48.60
60234;DHT22;49514;43.538;-5.708;2022-08-06T14:30:40;50.70;49.40
60234;DHT22;49514;43.538;-5.708;2022-08-06T14:33:09;50.90;47.80
60234;DHT22;49514;43.538;-5.708;2022-08-06T14:35:36;50.60;47.70
60234;DHT22;49514;43.538;-5.708;2022-08-06T14:38:03;50.80;59.60
60234;DHT22;49514;43.538;-5.708;2022-08-06T14:40:30;51.70;56.30
60234;DHT22;49514;43.538;-5.708;2022-08-06T14:43:15;51.60;47.40
60234;DHT22;49514;43.538;-5.708;2022-08-06T14:46:02;52.60;47.90
60234;DHT22;49514;43.538;-5.708;2022-08-06T14:55:50;53.30;45.70
60234;DHT22;49514;43.538;-5.708;2022-08-06T14:58:17;53.70;45.20
60234;DHT22;49514;43.538;-5.708;2022-08-06T15:00:43;53.70;45.80
60234;DHT22;49514;43.538;-5.708;2022-08-06T15:03:17;53.80;45.40
60234;DHT22;49514;43.538;-5.708;2022-08-06T15:10:37;54.30;72.70
60234;DHT22;49514;43.538;-5.708;2022-08-06T15:13:04;54.60;43.80
60234;DHT22;49514;43.538;-5.708;2022-08-06T15:15:31;54.30;44.20
60234;DHT22;49514;43.538;-5.708;2022-08-06T15:17:58;54.00;44.10
60234;DHT22;49514;43.538;-5.708;2022-08-06T15:20:24;54.20;43.00
60234;DHT22;49514;43.538;-5.708;2022-08-06T15:22:51;53.70;43.70
60234;DHT22;49514;43.538;-5.708;2022-08-06T15:25:18;53.80;43.30
60234;DHT22;49514;43.538;-5.708;2022-08-06T15:27:45;54.20;43.20
60234;DHT22;49514;43.538;-5.708;2022-08-06T15:30:12;54.30;43.40
60234;DHT22;49514;43.538;-5.708;2022-08-06T15:32:39;54.10;43.00
60234;DHT22;49514;43.538;-5.708;2022-08-06T15:35:05;52.80;43.50
60234;DHT22;49514;43.538;-5.708;2022-08-06T15:37:32;53.00;43.90
60234;DHT22;49514;43.538;-5.708;2022-08-06T15:39:58;52.80;43.40
60234;DHT22;49514;43.538;-5.708;2022-08-06T15:44:52;53.00;42.30
60234;DHT22;49514;43.538;-5.708;2022-08-06T15:47:19;53.10;43.30
60234;DHT22;49514;43.538;-5.708;2022-08-06T15:49:46;52.20;43.60
60234;DHT22;49514;43.538;-5.708;2022-08-06T15:54:39;52.70;42.90
60234;DHT22;49514;43.538;-5.708;2022-08-06T15:57:06;53.10;43.00
60234;DHT22;49514;43.538;-5.708;2022-08-06T15:59:32;53.20;43.00
60234;DHT22;49514;43.538;-5.708;2022-08-06T16:01:59;53.70;42.70
60234;DHT22;49514;43.538;-5.708;2022-08-06T16:04:26;53.20;42.60
60234;DHT22;49514;43.538;-5.708;2022-08-06T16:06:52;53.10;43.20
60234;DHT22;49514;43.538;-5.708;2022-08-06T16:09:20;52.70;43.10
60234;DHT22;49514;43.538;-5.708;2022-08-06T16:11:47;52.40;43.00
60234;DHT22;49514;43.538;-5.708;2022-08-06T16:14:13;52.20;43.50
60234;DHT22;49514;43.538;-5.708;2022-08-06T16:16:40;52.20;43.40
60234;DHT22;49514;43.538;-5.708;2022-08-06T16:19:06;52.20;43.40
60234;DHT22;49514;43.538;-5.708;2022-08-06T16:21:33;52.20;43.20
60234;DHT22;49514;43.538;-5.708;2022-08-06T16:23:59;52.50;43.30
60234;DHT22;49514;43.538;-5.708;2022-08-06T16:26:27;52.40;43.00
60234;DHT22;49514;43.538;-5.708;2022-08-06T16:28:54;51.20;43.60
60234;DHT22;49514;43.538;-5.708;2022-08-06T16:31:21;50.70;43.80
60234;DHT22;49514;43.538;-5.708;2022-08-06T16:33:47;50.30;44.20
60234;DHT22;49514;43.538;-5.708;2022-08-06T16:36:14;50.70;44.00
60234;DHT22;49514;43.538;-5.708;2022-08-06T16:38:40;50.10;44.30